createdAt,value
2023-02-23T00:00:14.676Z,94.21
2023-02-23T00:01:14.678Z,94.21
2023-02-23T00:02:14.693Z,94.21
2023-02-23T00:03:14.726Z,94.21
2023-02-23T00:04:14.638Z,94.10
2023-02-23T00:05:14.713Z,94.10
2023-02-23T00:06:14.702Z,94.10
2023-02-23T00:07:14.620Z,94.10
2023-02-23T00:08:14.592Z,94.10
2023-02-23T00:09:14.610Z,94.10
2023-02-23T00:10:14.572Z,94.10
2023-02-23T00:11:14.583Z,94.10
2023-02-23T00:12:14.544Z,94.10
2023-02-23T00:13:14.556Z,94.10
2023-02-23T00:14:14.513Z,94.10
2023-02-23T00:15:14.540Z,94.21
2023-02-23T00:16:14.541Z,94.21
2023-02-23T00:17:32.966Z,94.21
2023-02-23T00:18:14.493Z,94.21
2023-02-23T00:19:14.494Z,94.21
2023-02-23T00:20:14.495Z,94.17
2023-02-23T00:21:14.470Z,94.27
2023-02-23T00:22:14.451Z,94.27
2023-02-23T00:23:14.443Z,94.27
2023-02-23T00:24:14.445Z,94.27
2023-02-23T00:25:14.422Z,94.27
2023-02-23T00:26:14.384Z,94.27
2023-02-23T00:27:14.421Z,94.27
2023-02-23T00:28:14.362Z,94.37
2023-02-23T00:29:14.394Z,94.37
2023-02-23T00:30:14.354Z,94.47
2023-02-23T00:31:14.362Z,94.47
2023-02-23T00:32:14.455Z,94.47
2023-02-23T00:33:14.425Z,94.47
2023-02-23T00:34:14.313Z,94.57
2023-02-23T00:35:14.315Z,94.62
2023-02-23T00:36:14.290Z,94.68
2023-02-23T00:37:14.313Z,94.78
2023-02-23T00:38:14.276Z,94.78
2023-02-23T00:39:14.268Z,94.78
2023-02-23T00:40:14.258Z,94.89
2023-02-23T00:41:14.579Z,94.89
2023-02-23T00:42:14.220Z,94.99
2023-02-23T00:43:14.223Z,94.99
2023-02-23T00:44:14.198Z,94.99
2023-02-23T00:45:14.242Z,94.99
2023-02-23T00:46:14.192Z,94.99
2023-02-23T00:47:14.186Z,94.99
2023-02-23T00:48:14.145Z,94.89
2023-02-23T00:49:14.161Z,94.89
2023-02-23T00:50:14.127Z,94.99
2023-02-23T00:51:14.161Z,94.99
2023-02-23T00:52:14.121Z,94.99
2023-02-23T00:53:21.173Z,94.99
2023-02-23T00:54:22.795Z,94.99
2023-02-23T00:55:14.094Z,95.09
2023-02-23T00:56:14.074Z,95.09
2023-02-23T00:57:14.105Z,95.20
2023-02-23T00:58:14.059Z,95.20
2023-02-23T00:59:14.107Z,95.09
2023-02-23T01:00:14.047Z,95.09
2023-02-23T01:01:14.077Z,95.20
2023-02-23T01:02:14.041Z,95.30
2023-02-23T01:03:14.013Z,95.40
2023-02-23T01:04:14.027Z,95.50
2023-02-23T01:05:14.037Z,95.50
2023-02-23T01:06:13.982Z,95.61
2023-02-23T01:07:14.004Z,95.61
2023-02-23T01:08:13.992Z,95.61
2023-02-23T01:09:14.027Z,95.61
2023-02-23T01:10:13.911Z,95.61
2023-02-23T01:11:13.966Z,95.71
2023-02-23T01:12:13.973Z,95.71
2023-02-23T01:13:13.896Z,95.71
2023-02-23T01:14:13.889Z,95.71
2023-02-23T01:15:13.882Z,95.71
2023-02-23T01:16:13.925Z,95.71
2023-02-23T01:17:13.908Z,95.71
2023-02-23T01:18:13.828Z,95.71
2023-02-23T01:19:13.856Z,95.71
2023-02-23T01:20:13.827Z,95.71
2023-02-23T01:21:13.825Z,95.71
2023-02-23T01:22:13.811Z,95.81
2023-02-23T01:23:13.810Z,95.81
2023-02-23T01:24:13.847Z,95.81
2023-02-23T01:25:13.765Z,95.71
2023-02-23T01:26:13.744Z,95.71
2023-02-23T01:27:13.762Z,95.71
2023-02-23T01:28:13.704Z,95.81
2023-02-23T01:29:13.723Z,95.81
2023-02-23T01:30:13.704Z,95.81
2023-02-23T01:31:13.755Z,95.92
2023-02-23T01:32:13.835Z,95.92
2023-02-23T01:33:13.695Z,95.92
2023-02-23T01:34:13.666Z,95.92
2023-02-23T01:35:13.699Z,95.92
2023-02-23T01:36:13.624Z,95.92
2023-02-23T01:37:13.653Z,95.92
2023-02-23T01:38:13.633Z,95.92
2023-02-23T01:39:13.613Z,95.92
2023-02-23T01:40:13.611Z,95.92
2023-02-23T01:41:13.576Z,95.92
2023-02-23T01:42:13.572Z,96.02
2023-02-23T01:43:13.579Z,96.02
2023-02-23T01:44:13.559Z,96.02
2023-02-23T01:45:13.535Z,96.02
2023-02-23T01:46:13.592Z,96.02
2023-02-23T01:47:13.554Z,96.12
2023-02-23T01:48:13.516Z,96.12
2023-02-23T01:49:13.535Z,96.12
2023-02-23T01:50:13.448Z,96.12
2023-02-23T01:51:13.519Z,96.12
2023-02-23T01:52:13.502Z,96.12
2023-02-23T01:53:13.492Z,96.23
2023-02-23T01:54:16.271Z,96.23
2023-02-23T01:55:13.508Z,96.23
2023-02-23T01:56:13.384Z,96.23
2023-02-23T01:57:13.414Z,96.23
2023-02-23T01:58:13.427Z,96.23
2023-02-23T01:59:13.442Z,96.23
2023-02-23T02:00:13.353Z,96.23
2023-02-23T02:01:13.417Z,96.23
2023-02-23T02:02:13.440Z,96.23
2023-02-23T02:03:13.343Z,96.23
2023-02-23T02:04:13.357Z,96.23
2023-02-23T02:05:13.372Z,96.23
2023-02-23T02:06:13.767Z,96.23
2023-02-23T02:07:13.379Z,96.33
2023-02-23T02:08:13.242Z,96.33
2023-02-23T02:09:13.286Z,96.33
2023-02-23T02:10:13.267Z,96.33
2023-02-23T02:11:13.279Z,96.33
2023-02-23T02:12:13.211Z,96.33
2023-02-23T02:13:13.262Z,96.33
2023-02-23T02:14:13.215Z,96.33
2023-02-23T02:15:13.212Z,96.33
2023-02-23T02:16:13.221Z,96.33
2023-02-23T02:17:13.194Z,96.44
2023-02-23T02:18:13.178Z,96.44
2023-02-23T02:19:13.154Z,96.44
2023-02-23T02:20:13.334Z,96.44
2023-02-23T02:21:13.185Z,96.33
2023-02-23T02:22:13.146Z,96.33
2023-02-23T02:23:13.153Z,96.44
2023-02-23T02:24:13.101Z,96.33
2023-02-23T02:25:13.192Z,96.44
2023-02-23T02:26:13.192Z,96.44
2023-02-23T02:27:13.122Z,96.44
2023-02-23T02:28:13.206Z,96.44
2023-02-23T02:29:17.674Z,96.44
2023-02-23T02:30:13.034Z,96.44
2023-02-23T02:31:13.081Z,96.44
2023-02-23T02:32:13.047Z,96.44
2023-02-23T02:33:13.010Z,96.44
2023-02-23T02:34:13.012Z,96.44
2023-02-23T02:35:13.005Z,96.44
2023-02-23T02:36:12.984Z,96.44
2023-02-23T02:37:12.987Z,96.53
2023-02-23T02:38:12.925Z,96.53
2023-02-23T02:39:12.982Z,96.53
2023-02-23T02:40:12.922Z,96.53
2023-02-23T02:41:12.940Z,96.53
2023-02-23T02:42:12.907Z,96.53
2023-02-23T02:43:12.919Z,96.64
2023-02-23T02:44:12.871Z,96.64
2023-02-23T02:45:12.874Z,96.64
2023-02-23T02:46:12.892Z,96.64
2023-02-23T02:47:12.886Z,96.74
2023-02-23T02:48:12.881Z,96.74
2023-02-23T02:49:13.684Z,96.74
2023-02-23T02:50:12.828Z,96.74
2023-02-23T02:51:12.809Z,96.74
2023-02-23T02:52:12.836Z,96.84
2023-02-23T02:53:12.776Z,96.84
2023-02-23T02:54:12.771Z,96.84
2023-02-23T02:55:12.745Z,96.84
2023-02-23T02:56:12.771Z,96.84
2023-02-23T02:57:13.237Z,96.84
2023-02-23T02:58:12.748Z,96.84
2023-02-23T02:59:12.705Z,96.84
2023-02-23T03:00:12.743Z,96.84
2023-02-23T03:01:12.701Z,96.95
2023-02-23T03:02:12.688Z,96.95
2023-02-23T03:03:12.693Z,96.95
2023-02-23T03:04:12.706Z,96.95
2023-02-23T03:05:12.648Z,96.95
2023-02-23T03:06:12.639Z,97.05
2023-02-23T03:07:12.646Z,97.05
2023-02-23T03:08:12.633Z,97.05
2023-02-23T03:09:13.286Z,97.05
2023-02-23T03:10:12.640Z,97.05
2023-02-23T03:11:12.582Z,97.16
2023-02-23T03:12:12.563Z,97.16
2023-02-23T03:13:12.544Z,97.26
2023-02-23T03:14:12.566Z,97.26
2023-02-23T03:15:12.516Z,97.26
2023-02-23T03:16:12.602Z,97.26
2023-02-23T03:17:12.512Z,97.26
2023-02-23T03:18:12.494Z,97.36
2023-02-23T03:19:12.496Z,97.36
2023-02-23T03:20:12.490Z,97.36
2023-02-23T03:21:12.462Z,97.36
2023-02-23T03:22:12.465Z,97.36
2023-02-23T03:23:12.418Z,97.36
2023-02-23T03:24:12.508Z,97.36
2023-02-23T03:25:12.417Z,97.36
2023-02-23T03:26:12.422Z,97.36
2023-02-23T03:27:12.406Z,97.36
2023-02-23T03:28:12.479Z,97.36
2023-02-23T03:29:12.344Z,97.36
2023-02-23T03:30:12.422Z,97.36
2023-02-23T03:31:12.324Z,97.47
2023-02-23T03:32:12.485Z,97.47
2023-02-23T03:33:12.346Z,97.47
2023-02-23T03:34:12.502Z,97.47
2023-02-23T03:35:12.308Z,97.47
2023-02-23T03:36:12.304Z,97.47
2023-02-23T03:37:12.353Z,97.56
2023-02-23T03:38:12.301Z,97.56
2023-02-23T03:39:12.262Z,97.56
2023-02-23T03:40:12.288Z,97.67
2023-02-23T03:41:12.212Z,97.67
2023-02-23T03:42:12.249Z,97.67
2023-02-23T03:43:12.208Z,97.67
2023-02-23T03:44:12.238Z,97.67
2023-02-23T03:45:12.233Z,97.77
2023-02-23T03:46:12.214Z,97.77
2023-02-23T03:47:12.180Z,97.77
2023-02-23T03:48:12.227Z,97.77
2023-02-23T03:49:12.163Z,97.77
2023-02-23T03:50:12.166Z,97.88
2023-02-23T03:51:12.118Z,97.88
2023-02-23T03:52:12.123Z,97.88
2023-02-23T03:53:12.117Z,97.88
2023-02-23T03:54:12.100Z,97.88
2023-02-23T03:55:12.060Z,97.88
2023-02-23T03:56:12.080Z,97.92
2023-02-23T03:57:12.061Z,97.98
2023-02-23T03:58:12.069Z,97.98
2023-02-23T03:59:12.020Z,98.02
2023-02-23T04:00:12.115Z,97.98
2023-02-23T04:01:11.998Z,98.02
2023-02-23T04:02:12.030Z,98.02
2023-02-23T04:03:12.019Z,98.02
2023-02-23T04:04:11.980Z,98.02
2023-02-23T04:05:11.958Z,98.02
2023-02-23T04:06:11.996Z,98.02
2023-02-23T04:07:11.927Z,98.02
2023-02-23T04:08:11.981Z,98.02
2023-02-23T04:09:11.913Z,98.02
2023-02-23T04:10:11.917Z,98.13
2023-02-23T04:11:11.900Z,98.13
2023-02-23T04:12:11.908Z,98.13
2023-02-23T04:13:11.874Z,98.13
2023-02-23T04:14:11.879Z,98.13
2023-02-23T04:15:11.841Z,98.13
2023-02-23T04:16:11.915Z,98.13
2023-02-23T04:17:11.806Z,98.13
2023-02-23T04:18:11.853Z,98.23
2023-02-23T04:19:11.810Z,98.23
2023-02-23T04:20:11.806Z,98.23
2023-02-23T04:21:11.885Z,98.23
2023-02-23T04:22:11.798Z,98.23
2023-02-23T04:23:11.753Z,98.23
2023-02-23T04:24:11.758Z,98.33
2023-02-23T04:25:11.736Z,98.33
2023-02-23T04:26:11.738Z,98.33
2023-02-23T04:27:11.713Z,98.33
2023-02-23T04:28:11.988Z,98.33
2023-02-23T04:29:11.716Z,98.44
2023-02-23T04:30:11.751Z,98.44
2023-02-23T04:31:11.708Z,98.44
2023-02-23T04:32:11.917Z,98.44
2023-02-23T04:33:11.668Z,98.54
2023-02-23T04:34:11.695Z,98.54
2023-02-23T04:35:11.629Z,98.54
2023-02-23T04:36:11.621Z,98.54
2023-02-23T04:37:11.589Z,98.54
2023-02-23T04:38:11.629Z,98.65
2023-02-23T04:39:11.588Z,98.65
2023-02-23T04:40:11.584Z,98.65
2023-02-23T04:41:11.561Z,98.65
2023-02-23T04:42:11.556Z,98.75
2023-02-23T04:43:11.555Z,98.75
2023-02-23T04:44:11.543Z,98.75
2023-02-23T04:45:11.510Z,98.75
2023-02-23T04:46:11.552Z,98.75
2023-02-23T04:47:11.506Z,98.85
2023-02-23T04:48:11.500Z,98.85
2023-02-23T04:49:11.489Z,98.85
2023-02-23T04:50:11.472Z,98.85
2023-02-23T04:51:11.428Z,98.85
2023-02-23T04:52:11.450Z,98.85
2023-02-23T04:53:11.406Z,98.80
2023-02-23T04:54:11.450Z,98.80
2023-02-23T04:55:11.399Z,98.91
2023-02-23T04:56:11.424Z,98.91
2023-02-23T04:57:11.371Z,98.91
2023-02-23T04:58:11.388Z,98.91
2023-02-23T04:59:11.339Z,98.91
2023-02-23T05:00:11.368Z,98.91
2023-02-23T05:01:11.369Z,98.91
2023-02-23T05:02:11.350Z,98.91
2023-02-23T05:03:11.298Z,98.91
2023-02-23T05:04:11.309Z,99.01
2023-02-23T05:05:11.311Z,99.01
2023-02-23T05:06:11.355Z,99.01
2023-02-23T05:07:11.277Z,98.91
2023-02-23T05:08:11.270Z,98.91
2023-02-23T05:09:11.228Z,98.91
2023-02-23T05:10:11.322Z,98.91
2023-02-23T05:11:11.230Z,98.91
2023-02-23T05:12:11.239Z,98.91
2023-02-23T05:13:11.262Z,98.91
2023-02-23T05:14:11.198Z,99.01
2023-02-23T05:15:11.184Z,98.91
2023-02-23T05:16:11.251Z,98.91
2023-02-23T05:17:11.190Z,98.91
2023-02-23T05:18:11.189Z,98.91
2023-02-23T05:19:11.127Z,98.91
2023-02-23T05:20:11.140Z,98.91
2023-02-23T05:21:11.151Z,99.01
2023-02-23T05:22:11.117Z,99.01
2023-02-23T05:23:11.088Z,99.01
2023-02-23T05:24:11.150Z,99.01
2023-02-23T05:25:11.051Z,98.91
2023-02-23T05:26:11.068Z,98.91
2023-02-23T05:27:11.058Z,99.01
2023-02-23T05:28:11.063Z,99.01
2023-02-23T05:29:11.066Z,98.97
2023-02-23T05:30:11.041Z,98.97
2023-02-23T05:31:11.061Z,98.97
2023-02-23T05:32:11.132Z,98.97
2023-02-23T05:33:11.010Z,98.97
2023-02-23T05:34:10.997Z,98.97
2023-02-23T05:35:10.941Z,98.97
2023-02-23T05:36:10.980Z,98.97
2023-02-23T05:37:10.928Z,98.86
2023-02-23T05:38:10.947Z,98.86
2023-02-23T05:39:10.916Z,98.86
2023-02-23T05:40:10.938Z,98.86
2023-02-23T05:41:10.865Z,98.86
2023-02-23T05:42:10.895Z,98.86
2023-02-23T05:43:10.853Z,98.86
2023-02-23T05:44:10.891Z,98.86
2023-02-23T05:45:10.862Z,98.76
2023-02-23T05:46:11.069Z,98.86
2023-02-23T05:47:10.803Z,98.86
2023-02-23T05:48:10.821Z,98.86
2023-02-23T05:49:12.597Z,98.86
2023-02-23T05:50:10.880Z,98.86
2023-02-23T05:51:10.763Z,98.86
2023-02-23T05:52:10.771Z,98.86
2023-02-23T05:53:10.784Z,98.86
2023-02-23T05:54:10.780Z,98.86
2023-02-23T05:55:10.723Z,98.86
2023-02-23T05:56:10.732Z,98.86
2023-02-23T05:57:10.692Z,98.86
2023-02-23T05:58:10.712Z,98.86
2023-02-23T05:59:10.713Z,98.86
2023-02-23T06:00:10.719Z,98.86
2023-02-23T06:01:10.664Z,98.86
2023-02-23T06:02:10.672Z,98.86
2023-02-23T06:03:10.737Z,98.86
2023-02-23T06:04:10.643Z,98.86
2023-02-23T06:05:10.620Z,98.86
2023-02-23T06:06:10.622Z,98.86
2023-02-23T06:07:10.613Z,98.86
2023-02-23T06:08:10.633Z,98.86
2023-02-23T06:09:10.593Z,98.86
2023-02-23T06:10:10.595Z,98.86
2023-02-23T06:11:10.552Z,98.86
2023-02-23T06:12:10.563Z,98.86
2023-02-23T06:13:11.300Z,98.86
2023-02-23T06:14:10.545Z,98.86
2023-02-23T06:15:10.624Z,98.86
2023-02-23T06:16:10.558Z,98.86
2023-02-23T06:17:10.607Z,98.86
2023-02-23T06:18:10.482Z,98.86
2023-02-23T06:19:20.248Z,98.86
2023-02-23T06:20:10.474Z,98.86
2023-02-23T06:21:10.419Z,98.86
2023-02-23T06:22:10.456Z,98.86
2023-02-23T06:23:10.401Z,98.86
2023-02-23T06:24:10.421Z,98.97
2023-02-23T06:25:10.442Z,98.86
2023-02-23T06:26:10.413Z,98.97
2023-02-23T06:27:10.385Z,98.86
2023-02-23T06:28:10.370Z,98.97
2023-02-23T06:29:10.340Z,98.97
2023-02-23T06:30:10.750Z,98.97
2023-02-23T06:31:10.471Z,98.97
2023-02-23T06:32:10.470Z,98.86
2023-02-23T06:33:10.349Z,98.82
2023-02-23T06:34:10.468Z,98.82
2023-02-23T06:35:10.271Z,98.92
2023-02-23T06:36:19.549Z,98.86
2023-02-23T06:37:18.820Z,98.86
2023-02-23T06:38:18.833Z,98.82
2023-02-23T06:39:10.214Z,98.82
2023-02-23T06:40:17.801Z,98.82
2023-02-23T06:41:18.364Z,98.97
2023-02-23T06:42:10.209Z,98.92
2023-02-23T06:43:10.172Z,98.92
2023-02-23T06:44:10.179Z,98.92
2023-02-23T06:45:10.149Z,98.92
2023-02-23T06:46:17.767Z,98.92
2023-02-23T06:47:10.124Z,98.92
2023-02-23T06:48:10.172Z,98.92
2023-02-23T06:49:10.103Z,98.92
2023-02-23T06:50:10.113Z,98.92
2023-02-23T06:51:10.090Z,98.92
2023-02-23T06:52:10.099Z,98.92
2023-02-23T06:53:10.187Z,98.92
2023-02-23T06:54:10.070Z,99.02
2023-02-23T06:55:10.129Z,99.02
2023-02-23T06:56:12.341Z,99.02
2023-02-23T06:57:10.064Z,99.02
2023-02-23T06:58:10.002Z,99.02
2023-02-23T06:59:10.032Z,99.02
2023-02-23T07:00:10.055Z,99.02
2023-02-23T07:01:10.146Z,99.02
2023-02-23T07:02:09.999Z,99.02
2023-02-23T07:03:09.992Z,99.02
2023-02-23T07:04:10.038Z,99.02
2023-02-23T07:05:09.956Z,99.02
2023-02-23T07:06:09.937Z,99.13
2023-02-23T07:07:09.939Z,99.13
2023-02-23T07:08:10.014Z,99.13
2023-02-23T07:09:09.958Z,99.13
2023-02-23T07:10:09.881Z,99.13
2023-02-23T07:11:09.896Z,99.13
2023-02-23T07:12:10.802Z,99.13
2023-02-23T07:13:09.888Z,99.13
2023-02-23T07:14:12.896Z,99.13
2023-02-23T07:15:10.890Z,99.13
2023-02-23T07:16:09.921Z,99.13
2023-02-23T07:17:12.300Z,99.13
2023-02-23T07:18:09.843Z,99.13
2023-02-23T07:19:09.846Z,99.13
2023-02-23T07:20:09.774Z,99.13
2023-02-23T07:21:09.777Z,99.13
2023-02-23T07:22:09.744Z,99.13
2023-02-23T07:23:09.839Z,99.08
2023-02-23T07:24:09.728Z,99.08
2023-02-23T07:25:09.740Z,99.02
2023-02-23T07:26:09.710Z,98.97
2023-02-23T07:27:09.726Z,98.97
2023-02-23T07:28:09.692Z,98.97
2023-02-23T07:29:09.691Z,98.97
2023-02-23T07:30:09.669Z,98.97
2023-02-23T07:31:09.680Z,98.97
2023-02-23T07:32:09.865Z,98.97
2023-02-23T07:33:09.638Z,98.97
2023-02-23T07:34:09.612Z,98.97
2023-02-23T07:35:09.637Z,98.97
2023-02-23T07:36:09.648Z,98.97
2023-02-23T07:37:09.606Z,98.97
2023-02-23T07:38:09.566Z,98.97
2023-02-23T07:39:09.591Z,98.97
2023-02-23T07:40:09.542Z,98.97
2023-02-23T07:41:09.578Z,98.97
2023-02-23T07:42:09.552Z,99.08
2023-02-23T07:43:09.530Z,98.97
2023-02-23T07:44:09.508Z,98.93
2023-02-23T07:45:09.545Z,98.93
2023-02-23T07:46:09.522Z,98.93
2023-02-23T07:47:09.509Z,98.93
2023-02-23T07:48:09.489Z,98.93
2023-02-23T07:49:09.538Z,98.93
2023-02-23T07:50:09.449Z,98.93
2023-02-23T07:51:10.130Z,98.93
2023-02-23T07:52:09.447Z,98.93
2023-02-23T07:53:09.430Z,98.83
2023-02-23T07:54:09.416Z,98.83
2023-02-23T07:55:09.418Z,98.83
2023-02-23T07:56:09.888Z,98.83
2023-02-23T07:57:10.248Z,98.83
2023-02-23T07:58:09.367Z,98.72
2023-02-23T07:59:09.373Z,98.72
2023-02-23T08:00:09.391Z,98.72
2023-02-23T08:01:09.435Z,98.72
2023-02-23T08:02:09.354Z,98.83
2023-02-23T08:03:09.311Z,98.83
2023-02-23T08:04:09.354Z,98.79
2023-02-23T08:05:09.301Z,98.79
2023-02-23T08:06:09.315Z,98.79
2023-02-23T08:07:09.298Z,98.79
2023-02-23T08:08:09.284Z,98.79
2023-02-23T08:09:09.261Z,98.79
2023-02-23T08:10:09.217Z,98.79
2023-02-23T08:11:09.281Z,98.79
2023-02-23T08:12:09.287Z,98.79
2023-02-23T08:13:09.230Z,98.79
2023-02-23T08:14:09.265Z,98.79
2023-02-23T08:15:09.318Z,98.79
2023-02-23T08:16:09.168Z,98.79
2023-02-23T08:17:09.168Z,98.74
2023-02-23T08:18:09.182Z,98.74
2023-02-23T08:19:09.224Z,98.74
2023-02-23T08:20:09.137Z,98.74
2023-02-23T08:21:09.168Z,98.74
2023-02-23T08:22:10.255Z,98.74
2023-02-23T08:23:09.112Z,98.63
2023-02-23T08:24:09.071Z,98.63
2023-02-23T08:25:09.079Z,98.53
2023-02-23T08:26:09.070Z,98.53
2023-02-23T08:27:09.075Z,98.49
2023-02-23T08:28:09.032Z,98.49
2023-02-23T08:29:09.030Z,98.38
2023-02-23T08:30:09.038Z,98.38
2023-02-23T08:31:09.177Z,98.38
2023-02-23T08:32:09.045Z,98.28
2023-02-23T08:33:08.991Z,98.18
2023-02-23T08:34:09.005Z,98.18
2023-02-23T08:35:08.962Z,98.07
2023-02-23T08:36:08.941Z,97.92
2023-02-23T08:37:08.997Z,97.92
2023-02-23T08:38:08.963Z,97.82
2023-02-23T08:39:08.940Z,97.72
2023-02-23T08:40:08.890Z,97.52
2023-02-23T08:41:08.907Z,97.31
2023-02-23T08:42:08.871Z,97.20
2023-02-23T08:43:08.896Z,96.90
2023-02-23T08:44:08.859Z,96.59
2023-02-23T08:45:08.860Z,96.39
2023-02-23T08:46:08.875Z,96.28
2023-02-23T08:47:08.920Z,96.18
2023-02-23T08:48:08.892Z,96.08
2023-02-23T08:49:08.846Z,95.87
2023-02-23T08:50:08.790Z,95.87
2023-02-23T08:51:08.857Z,95.87
2023-02-23T08:52:08.746Z,95.77
2023-02-23T08:53:08.766Z,95.67
2023-02-23T08:54:08.744Z,95.56
2023-02-23T08:55:08.748Z,95.67
2023-02-23T08:56:08.699Z,95.67
2023-02-23T08:57:12.231Z,95.77
2023-02-23T08:58:08.706Z,95.77
2023-02-23T08:59:08.723Z,95.67
2023-02-23T09:00:08.662Z,95.56
2023-02-23T09:01:08.698Z,95.56
2023-02-23T09:02:09.061Z,95.56
2023-02-23T09:03:08.699Z,95.46
2023-02-23T09:04:08.621Z,95.46
2023-02-23T09:05:08.726Z,95.46
2023-02-23T09:06:08.613Z,95.46
2023-02-23T09:07:08.613Z,95.46
2023-02-23T09:08:08.562Z,95.46
2023-02-23T09:09:08.623Z,95.42
2023-02-23T09:10:08.554Z,95.42
2023-02-23T09:11:08.583Z,95.21
2023-02-23T09:12:08.570Z,95.10
2023-02-23T09:13:08.564Z,94.90
2023-02-23T09:14:08.507Z,94.70
2023-02-23T09:15:08.514Z,94.59
2023-02-23T09:16:08.533Z,94.49
2023-02-23T09:17:08.536Z,94.49
2023-02-23T09:18:08.514Z,94.49
2023-02-23T09:19:08.482Z,94.39
2023-02-23T09:20:08.444Z,94.34
2023-02-23T09:21:08.491Z,94.24
2023-02-23T09:22:08.422Z,94.04
2023-02-23T09:23:08.463Z,94.04
2023-02-23T09:24:08.409Z,93.93
2023-02-23T09:25:08.431Z,93.73
2023-02-23T09:26:08.406Z,93.32
2023-02-23T09:27:08.392Z,93.21
2023-02-23T09:28:08.443Z,93.12
2023-02-23T09:29:08.402Z,93.12
2023-02-23T09:30:08.369Z,93.01
2023-02-23T09:31:09.088Z,92.91
2023-02-23T09:32:08.397Z,92.91
2023-02-23T09:33:08.324Z,92.50
2023-02-23T09:34:08.301Z,92.29
2023-02-23T09:35:08.342Z,92.29
2023-02-23T09:36:08.276Z,92.40
2023-02-23T09:37:09.081Z,92.19
2023-02-23T09:38:08.252Z,91.88
2023-02-23T09:39:08.456Z,91.99
2023-02-23T09:40:08.254Z,92.19
2023-02-23T09:41:08.222Z,92.40
2023-02-23T09:42:08.213Z,92.50
2023-02-23T09:43:08.204Z,92.40
2023-02-23T09:44:08.191Z,92.50
2023-02-23T09:45:08.187Z,92.40
2023-02-23T09:46:08.195Z,92.29
2023-02-23T09:47:08.201Z,92.08
2023-02-23T09:48:08.121Z,91.99
2023-02-23T09:49:08.162Z,91.99
2023-02-23T09:50:08.127Z,91.99
2023-02-23T09:51:08.160Z,92.04
2023-02-23T09:52:08.164Z,91.63
2023-02-23T09:53:08.102Z,91.42
2023-02-23T09:54:08.049Z,91.02
2023-02-23T09:55:08.075Z,90.81
2023-02-23T09:56:08.032Z,91.12
2023-02-23T09:57:08.074Z,91.33
2023-02-23T09:58:08.383Z,91.42
2023-02-23T09:59:09.979Z,91.53
2023-02-23T10:00:08.025Z,91.53
2023-02-23T10:01:08.081Z,91.33
2023-02-23T10:02:07.983Z,91.33
2023-02-23T10:03:08.007Z,91.38
2023-02-23T10:04:07.983Z,91.49
2023-02-23T10:05:08.004Z,91.38
2023-02-23T10:06:07.947Z,91.28
2023-02-23T10:07:07.946Z,90.97
2023-02-23T10:08:07.939Z,90.67
2023-02-23T10:09:08.060Z,90.67
2023-02-23T10:10:07.907Z,90.67
2023-02-23T10:11:07.909Z,90.77
2023-02-23T10:12:07.857Z,90.50
2023-02-23T10:13:07.877Z,90.50
2023-02-23T10:14:07.974Z,90.81
2023-02-23T10:15:07.848Z,90.81
2023-02-23T10:16:07.841Z,90.81
2023-02-23T10:17:07.818Z,91.02
2023-02-23T10:18:07.800Z,91.12
2023-02-23T10:19:07.806Z,91.22
2023-02-23T10:20:07.783Z,91.22
2023-02-23T10:21:07.790Z,91.12
2023-02-23T10:22:07.756Z,90.85
2023-02-23T10:23:07.808Z,90.95
2023-02-23T10:24:07.739Z,91.06
2023-02-23T10:25:07.750Z,91.06
2023-02-23T10:26:07.737Z,91.22
2023-02-23T10:27:07.704Z,91.37
2023-02-23T10:28:07.690Z,91.27
2023-02-23T10:29:07.705Z,91.16
2023-02-23T10:30:07.685Z,91.37
2023-02-23T10:31:07.746Z,91.37
2023-02-23T10:32:08.518Z,91.57
2023-02-23T10:33:07.706Z,91.78
2023-02-23T10:34:07.669Z,92.08
2023-02-23T10:35:07.616Z,92.29
2023-02-23T10:36:13.664Z,92.29
2023-02-23T10:37:08.653Z,92.29
2023-02-23T10:38:07.557Z,91.93
2023-02-23T10:39:07.648Z,92.13
2023-02-23T10:40:07.565Z,92.54
2023-02-23T10:41:07.627Z,92.74
2023-02-23T10:42:07.511Z,93.05
2023-02-23T10:43:07.528Z,92.95
2023-02-23T10:44:16.506Z,92.95
2023-02-23T10:45:08.523Z,93.05
2023-02-23T10:46:07.501Z,93.16
2023-02-23T10:47:07.486Z,93.46
2023-02-23T10:48:07.513Z,93.57
2023-02-23T10:49:07.474Z,93.67
2023-02-23T10:50:07.472Z,93.77
2023-02-23T10:51:07.632Z,93.77
2023-02-23T10:52:07.449Z,93.67
2023-02-23T10:53:08.176Z,93.51
2023-02-23T10:54:08.173Z,93.61
2023-02-23T10:55:07.396Z,93.61
2023-02-23T10:56:07.367Z,93.61
2023-02-23T10:57:07.410Z,93.61
2023-02-23T10:58:07.333Z,93.71
2023-02-23T10:59:07.369Z,93.82
2023-02-23T11:00:08.302Z,94.02
2023-02-23T11:01:07.355Z,94.12
2023-02-23T11:02:07.330Z,94.23
2023-02-23T11:03:07.313Z,94.23
2023-02-23T11:04:07.274Z,94.33
2023-02-23T11:05:08.055Z,94.33
2023-02-23T11:06:07.262Z,94.43
2023-02-23T11:07:07.301Z,94.43
2023-02-23T11:08:07.221Z,94.43
2023-02-23T11:09:07.262Z,94.33
2023-02-23T11:10:07.220Z,94.02
2023-02-23T11:11:07.188Z,93.92
2023-02-23T11:12:07.206Z,93.82
2023-02-23T11:13:07.970Z,93.71
2023-02-23T11:14:07.189Z,93.40
2023-02-23T11:15:07.151Z,93.20
2023-02-23T11:16:07.359Z,93.30
2023-02-23T11:17:07.171Z,93.40
2023-02-23T11:18:07.229Z,93.46
2023-02-23T11:19:07.185Z,93.26
2023-02-23T11:20:07.889Z,93.05
2023-02-23T11:21:08.051Z,92.95
2023-02-23T11:22:07.101Z,93.05
2023-02-23T11:23:14.249Z,93.01
2023-02-23T11:24:08.089Z,92.80
2023-02-23T11:25:07.081Z,92.70
2023-02-23T11:26:07.108Z,92.60
2023-02-23T11:27:07.069Z,92.29
2023-02-23T11:28:07.023Z,91.57
2023-02-23T11:29:07.313Z,91.37
2023-02-23T11:30:07.019Z,91.27
2023-02-23T11:31:07.097Z,91.06
2023-02-23T11:32:09.998Z,90.65
2023-02-23T11:33:06.954Z,90.95
2023-02-23T11:34:06.958Z,90.85
2023-02-23T11:35:06.953Z,90.95
2023-02-23T11:36:06.921Z,90.95
2023-02-23T11:37:06.916Z,91.06
2023-02-23T11:38:06.930Z,91.16
2023-02-23T11:39:06.888Z,91.27
2023-02-23T11:40:06.875Z,91.16
2023-02-23T11:41:06.929Z,91.37
2023-02-23T11:42:06.894Z,91.47
2023-02-23T11:43:06.840Z,91.51
2023-02-23T11:44:06.841Z,91.78
2023-02-23T11:45:06.788Z,91.61
2023-02-23T11:46:06.883Z,91.20
2023-02-23T11:47:06.818Z,91.00
2023-02-23T11:48:06.853Z,91.00
2023-02-23T11:49:06.752Z,91.20
2023-02-23T11:50:06.793Z,91.20
2023-02-23T11:51:06.737Z,91.20
2023-02-23T11:52:06.777Z,91.37
2023-02-23T11:53:06.747Z,91.37
2023-02-23T11:54:06.737Z,91.06
2023-02-23T11:55:06.709Z,90.55
2023-02-23T11:56:06.728Z,90.08
2023-02-23T11:57:06.672Z,90.18
2023-02-23T11:58:06.691Z,90.38
2023-02-23T11:59:06.653Z,90.38
2023-02-23T12:00:06.659Z,90.48
2023-02-23T12:01:07.565Z,90.80
2023-02-23T12:02:06.851Z,91.00
2023-02-23T12:03:06.698Z,91.10
2023-02-23T12:04:06.611Z,91.31
2023-02-23T12:05:06.649Z,91.51
2023-02-23T12:06:06.607Z,91.41
2023-02-23T12:07:06.687Z,91.61
2023-02-23T12:08:06.656Z,91.82
2023-02-23T12:09:06.564Z,91.82
2023-02-23T12:10:06.617Z,91.82
2023-02-23T12:11:06.516Z,91.82
2023-02-23T12:12:06.517Z,91.93
2023-02-23T12:13:06.506Z,92.03
2023-02-23T12:14:07.060Z,91.93
2023-02-23T12:15:06.458Z,91.72
2023-02-23T12:16:06.523Z,91.41
2023-02-23T12:17:06.466Z,91.51
2023-02-23T12:18:06.476Z,91.72
2023-02-23T12:19:06.478Z,91.82
2023-02-23T12:20:06.443Z,91.97
2023-02-23T12:21:06.432Z,91.97
2023-02-23T12:22:06.560Z,92.07
2023-02-23T12:23:06.396Z,92.17
2023-02-23T12:24:06.394Z,92.27
2023-02-23T12:25:06.404Z,92.38
2023-02-23T12:26:06.362Z,92.38
2023-02-23T12:27:06.347Z,91.86
2023-02-23T12:28:18.112Z,91.66
2023-02-23T12:29:07.361Z,91.86
2023-02-23T12:30:08.776Z,91.97
2023-02-23T12:31:06.331Z,92.07
2023-02-23T12:32:06.424Z,92.11
2023-02-23T12:33:06.258Z,92.21
2023-02-23T12:34:06.275Z,92.21
2023-02-23T12:35:06.277Z,92.27
2023-02-23T12:36:06.266Z,92.27
2023-02-23T12:37:06.210Z,92.58
2023-02-23T12:38:06.268Z,92.38
2023-02-23T12:39:06.195Z,92.01
2023-02-23T12:40:06.220Z,92.07
2023-02-23T12:41:06.179Z,92.17
2023-02-23T12:42:06.199Z,92.27
2023-02-23T12:43:06.200Z,92.27
2023-02-23T12:44:06.157Z,92.07
2023-02-23T12:45:06.142Z,91.93
2023-02-23T12:46:08.502Z,91.82
2023-02-23T12:47:06.128Z,91.82
2023-02-23T12:48:06.133Z,91.82
2023-02-23T12:49:06.083Z,91.72
2023-02-23T12:50:06.093Z,91.37
2023-02-23T12:51:06.057Z,91.16
2023-02-23T12:52:06.106Z,90.85